AirNav   Air Wisconsin pilot careers
 
 617 users online  

74FD Clarksville Airport
Clarksville, Florida, USA

GOING TO CLARKSVILLE?


FAA INFORMATION EFFECTIVE 24 MAY 2018

Location

FAA Identifier: 74FD
Lat/Long: 30-27-50.7010N / 085-10-37.7130W
30-27.845017N / 085-10.628550W
30.4640836 / -85.1771425
(estimated)
Elevation: 90 ft. / 27 m (estimated)
Variation: 01W (1990)
From city: 2 miles N of CLARKSVILLE, FL
Time zone: UTC -5 (UTC -6 during Standard Time)
Zip code: 32430

Airport Operations

Airport use: Private use. Permission required prior to landing
Activation date: 03/1993
Control tower: no
ARTCC: JACKSONVILLE CENTER
FSS: GAINESVILLE FLIGHT SERVICE STATION
Attendance: UNATNDD
Segmented circle: no

Airport Communications

WX AWOS-AV at F95 (4 nm NE): 119.350 (850-674-1347)

Nearby radio navigation aids

VOR radial/distance  VOR name  Freq  Var
MAIr188/19.5MARIANNA VORTAC114.0000E
HLLr055/33.2HANDLE VORTAC114.3004W

 
NDB name  Hdg/Dist  Freq  Var  ID
SOYYA176/24.632902WSMY ... -- -.--
LYNNE079/32.427804WPFN .--. ..-. -.

Airport Services

Runway Information

Runway 5/23

Dimensions: 2600 x 100 ft. / 792 x 30 m
Surface: turf
RUNWAY 5  RUNWAY 23
Traffic pattern: leftleft

Airport Ownership and Management from official FAA records

Ownership: Privately-owned
Owner: RONALD STITELER
ROUTE 1 BOX 140
ALTHA, FL 32421
Phone 850-674-8385

Instrument Procedures

There are no published instrument procedures at 74FD.

Some nearby airports with instrument procedures:

KMAI - Marianna Municipal Airport (22 nm N)
KPAM - Tyndall Air Force Base (31 nm SW)
1J0 - Tri-County Airport (32 nm NW)
KECP - Northwest Florida Beaches International Airport (33 nm W)
2J9 - Quincy Municipal Airport (33 nm E)
 
Loc | Ops | Rwys | IFR | FBO | Links
Com | Nav | Svcs | Stats | Notes

AirNav Hotels Sweepstakes
 
Area around 74FD (Clarksville Airport)
 
Road maps at: MapQuest Bing Google
 
Aerial photo
No photo
 
Sectional chart

 
Airport distance calculator
Flying to Clarksville Airport? Find the distance to fly.

From to 74FD

Sunrise and sunset
Times for 27-May-2018
 Local
(UTC-5)
 Zulu
(UTC)
Morning civil twilight05:1410:14
Sunrise05:4110:41
Sunset19:3400:34
Evening civil twilight20:0101:01

Current date and time
Zulu (UTC)  28-May-2018 04:28:58
Local (UTC-5)  27-May-2018 23:28:58
 
METAR
KMAI 
22nm N 
280353Z AUTO 07010KT 10SM OVC008 23/22 A2976 RMK AO2 CIG 007V012 SLP075 T02330222
KPAM 
31nm SW 
280356Z AUTO 05009KT 10SM OVC007 23/22 A2972 RMK AO2 SLP067 T02280221
K1J0 
32nm NW 
280358Z AUTO 04007KT 10SM BKN009 OVC014 23/22 A2977 RMK AO2 RAE41 SLP038 P0000 T02280217 $
KECP 
33nm W 
280353Z AUTO 04009KT 10SM OVC009 23/22 A2973 RMK AO2 CIG 006V012 SLP076 T02280217
K2J9 
33nm E 
280415Z AUTO 08006KT 10SM OVC005 23/23 A2978 RMK AO2
KBGE 
41nm NE 
280415Z AUTO 05008KT 10SM BKN011 OVC018 23/23 A2979 RMK AO2
KTLH 
43nm E 
280407Z AUTO 10008KT 10SM BKN008 OVC013 24/23 A2976 RMK AO2 LTG DSNT SE RAE04 P0000 T02390228 $
TAF
KPAM 
31nm SW 
280200Z 2802/2908 05010G15KT 9999 FEW009 QNH2966INS TEMPO 2802/2805 05025G35KT 4800 -TSRA BKN009CB BECMG 2804/2805 05025G35KT 6000 -SHRA BKN009 OVC030 QNH2959INS TEMPO 2805/2811 4800 -TSRA BKN009CB BECMG 2810/2811 06025G35KT 4800 RA BKN009 OVC030 QNH2933INS TEMPO 2811/2816 4800 -TSRA BKN009CB TEMPO 2811/2816 06050G60KT 3200 RA TEMPO 2816/2821 4800 -TSRA BKN009CB BECMG 2820/2821 21025G35KT 6000 -SHRA BKN009 QNH2956INS TEMPO 2821/2900 4800 -TSRA BKN009CB BECMG 2900/2901 21012G20KT 8000 -SHRA BKN00
KECP 
33nm W 
280111Z 2801/2824 03012G20KT 3SM +RA OVC012 FM280700 10020G30KT 1SM +RA VCTS BKN005 OVC010CB TEMPO 2814/2818 20030G40KT 1/2SM +TSRA FM281900 20020G30KT 6SM -RA OVC015
NOTAMs
Click for the latest NOTAMs
NOTAMs are issued by the DoD/FAA and will open in a separate window not controlled by AirNav.

 

 
 

Would you like to see your business listed on this page?

 If your business provides an interesting product or service to pilots, flight crews, aircraft, or users of the Clarksville Airport, you should consider listing it here.  To start the listing process, click on the button below
 
Add a business
 

Other Pages about Clarksville Airport

Update a link
 
Copyright © AirNav, LLC. All rights reserved. Privacy Policy  Contact